sensor_id;sensor_type;location;lat;lon;timestamp;pressure;altitude;pressure_sealevel;temperature;humidity
36748;BME280;22716;51.556;5.080;2023-06-14T00:00:16;100766.44;;;22.78;36.95
36748;BME280;22716;51.556;5.080;2023-06-14T00:02:43;100764.25;;;22.70;37.85
36748;BME280;22716;51.556;5.080;2023-06-14T00:05:10;100776.44;;;22.60;37.37
36748;BME280;22716;51.556;5.080;2023-06-14T00:07:39;100766.31;;;22.51;37.72
36748;BME280;22716;51.556;5.080;2023-06-14T00:10:10;100770.69;;;22.52;37.29
36748;BME280;22716;51.556;5.080;2023-06-14T00:12:38;100764.03;;;22.45;37.40
36748;BME280;22716;51.556;5.080;2023-06-14T00:15:07;100771.44;;;22.40;37.90
36748;BME280;22716;51.556;5.080;2023-06-14T00:17:35;100764.75;;;22.33;37.24
36748;BME280;22716;51.556;5.080;2023-06-14T00:20:03;100778.84;;;22.21;37.58
36748;BME280;22716;51.556;5.080;2023-06-14T00:22:33;100777.41;;;22.15;37.92
36748;BME280;22716;51.556;5.080;2023-06-14T00:25:02;100773.13;;;21.97;37.51
36748;BME280;22716;51.556;5.080;2023-06-14T00:27:30;100771.41;;;21.96;38.07
36748;BME280;22716;51.556;5.080;2023-06-14T00:29:57;100772.44;;;21.94;38.09
36748;BME280;22716;51.556;5.080;2023-06-14T00:32:24;100777.88;;;21.92;37.76
36748;BME280;22716;51.556;5.080;2023-06-14T00:34:51;100776.16;;;21.91;37.92
36748;BME280;22716;51.556;5.080;2023-06-14T00:37:18;100771.88;;;21.89;37.46
36748;BME280;22716;51.556;5.080;2023-06-14T00:39:45;100774.75;;;21.84;37.51
36748;BME280;22716;51.556;5.080;2023-06-14T00:42:23;100762.81;;;21.75;37.86
36748;BME280;22716;51.556;5.080;2023-06-14T00:44:52;100770.97;;;21.72;37.41
36748;BME280;22716;51.556;5.080;2023-06-14T00:47:18;100778.91;;;21.74;37.60
36748;BME280;22716;51.556;5.080;2023-06-14T00:49:46;100776.31;;;21.72;37.08
36748;BME280;22716;51.556;5.080;2023-06-14T00:52:14;100771.09;;;21.71;36.94
36748;BME280;22716;51.556;5.080;2023-06-14T00:54:42;100774.00;;;21.66;37.36
36748;BME280;22716;51.556;5.080;2023-06-14T00:57:09;100754.84;;;21.44;37.34
36748;BME280;22716;51.556;5.080;2023-06-14T00:59:42;100782.63;;;21.56;37.27
36748;BME280;22716;51.556;5.080;2023-06-14T01:02:11;100782.63;;;21.56;37.20
36748;BME280;22716;51.556;5.080;2023-06-14T01:04:41;100761.13;;;21.43;37.35
36748;BME280;22716;51.556;5.080;2023-06-14T01:07:15;100768.34;;;21.41;36.98
36748;BME280;22716;51.556;5.080;2023-06-14T01:10:07;100778.25;;;21.39;37.45
36748;BME280;22716;51.556;5.080;2023-06-14T01:12:42;100781.25;;;21.33;37.74
36748;BME280;22716;51.556;5.080;2023-06-14T01:15:12;100773.94;;;21.21;37.43
36748;BME280;22716;51.556;5.080;2023-06-14T01:17:42;100773.50;;;21.29;37.33
36748;BME280;22716;51.556;5.080;2023-06-14T01:20:12;100777.72;;;21.33;36.90
36748;BME280;22716;51.556;5.080;2023-06-14T01:22:50;100778.59;;;21.33;37.49
36748;BME280;22716;51.556;5.080;2023-06-14T01:25:17;100771.00;;;21.26;37.69
36748;BME280;22716;51.556;5.080;2023-06-14T01:27:48;100763.44;;;21.18;37.38
36748;BME280;22716;51.556;5.080;2023-06-14T01:30:16;100768.59;;;21.21;37.81
36748;BME280;22716;51.556;5.080;2023-06-14T01:32:44;100767.03;;;21.17;37.83
36748;BME280;22716;51.556;5.080;2023-06-14T01:35:11;100784.16;;;21.13;37.72
36748;BME280;22716;51.556;5.080;2023-06-14T01:37:39;100787.75;;;21.12;37.36
36748;BME280;22716;51.556;5.080;2023-06-14T01:40:09;100785.41;;;21.06;38.18
36748;BME280;22716;51.556;5.080;2023-06-14T01:42:38;100778.50;;;21.02;37.87
36748;BME280;22716;51.556;5.080;2023-06-14T01:45:06;100773.00;;;21.05;37.84
36748;BME280;22716;51.556;5.080;2023-06-14T01:47:34;100775.06;;;21.00;38.13
36748;BME280;22716;51.556;5.080;2023-06-14T01:50:02;100775.94;;;21.00;38.07
36748;BME280;22716;51.556;5.080;2023-06-14T01:52:29;100777.91;;;20.97;38.23
36748;BME280;22716;51.556;5.080;2023-06-14T01:54:56;100777.13;;;20.95;37.84
36748;BME280;22716;51.556;5.080;2023-06-14T01:57:25;100771.59;;;20.82;38.41
36748;BME280;22716;51.556;5.080;2023-06-14T01:59:52;100769.81;;;20.83;38.35
36748;BME280;22716;51.556;5.080;2023-06-14T02:02:20;100770.72;;;20.82;38.54
36748;BME280;22716;51.556;5.080;2023-06-14T02:04:46;100773.31;;;20.83;38.34
36748;BME280;22716;51.556;5.080;2023-06-14T02:07:14;100776.22;;;20.79;38.51
36748;BME280;22716;51.556;5.080;2023-06-14T02:09:41;100769.97;;;20.80;38.39
36748;BME280;22716;51.556;5.080;2023-06-14T02:12:08;100776.16;;;20.80;38.40
36748;BME280;22716;51.556;5.080;2023-06-14T02:14:37;100776.94;;;20.82;38.36
36748;BME280;22716;51.556;5.080;2023-06-14T02:17:05;100772.31;;;20.86;38.21
36748;BME280;22716;51.556;5.080;2023-06-14T02:19:32;100777.63;;;20.86;38.47
36748;BME280;22716;51.556;5.080;2023-06-14T02:21:58;100775.22;;;20.81;38.60
36748;BME280;22716;51.556;5.080;2023-06-14T02:24:25;100775.88;;;20.69;38.28
36748;BME280;22716;51.556;5.080;2023-06-14T02:26:52;100769.69;;;20.68;38.38
36748;BME280;22716;51.556;5.080;2023-06-14T02:29:19;100774.84;;;20.72;38.54
36748;BME280;22716;51.556;5.080;2023-06-14T02:31:47;100780.16;;;20.72;38.85
36748;BME280;22716;51.556;5.080;2023-06-14T02:34:15;100783.06;;;20.67;38.73
36748;BME280;22716;51.556;5.080;2023-06-14T02:36:43;100776.34;;;20.60;38.94
36748;BME280;22716;51.556;5.080;2023-06-14T02:39:10;100778.16;;;20.59;38.72
36748;BME280;22716;51.556;5.080;2023-06-14T02:41:38;100781.13;;;20.53;39.03
36748;BME280;22716;51.556;5.080;2023-06-14T02:44:05;100769.22;;;20.43;38.74
36748;BME280;22716;51.556;5.080;2023-06-14T02:46:32;100783.25;;;20.47;39.22
36748;BME280;22716;51.556;5.080;2023-06-14T02:49:00;100776.84;;;20.51;39.35
36748;BME280;22716;51.556;5.080;2023-06-14T02:51:27;100791.47;;;20.59;38.96
36748;BME280;22716;51.556;5.080;2023-06-14T02:53:54;100784.19;;;20.63;39.30
36748;BME280;22716;51.556;5.080;2023-06-14T02:56:21;100787.22;;;20.55;38.84
36748;BME280;22716;51.556;5.080;2023-06-14T02:58:48;100767.44;;;20.44;38.97
36748;BME280;22716;51.556;5.080;2023-06-14T03:01:16;100788.03;;;20.57;39.16
36748;BME280;22716;51.556;5.080;2023-06-14T03:03:43;100789.19;;;20.52;39.13
36748;BME280;22716;51.556;5.080;2023-06-14T03:06:11;100795.63;;;20.48;39.35
36748;BME280;22716;51.556;5.080;2023-06-14T03:08:39;100795.69;;;20.46;39.62
36748;BME280;22716;51.556;5.080;2023-06-14T03:11:07;100794.06;;;20.44;39.57
36748;BME280;22716;51.556;5.080;2023-06-14T03:13:34;100797.75;;;20.41;39.83
36748;BME280;22716;51.556;5.080;2023-06-14T03:16:01;100798.00;;;20.37;39.41
36748;BME280;22716;51.556;5.080;2023-06-14T03:18:29;100802.34;;;20.38;39.43
36748;BME280;22716;51.556;5.080;2023-06-14T03:21:01;100801.66;;;20.34;39.47
36748;BME280;22716;51.556;5.080;2023-06-14T03:23:30;100797.50;;;20.29;40.21
36748;BME280;22716;51.556;5.080;2023-06-14T03:25:57;100799.38;;;20.27;39.60
36748;BME280;22716;51.556;5.080;2023-06-14T03:28:23;100794.94;;;20.27;39.83
36748;BME280;22716;51.556;5.080;2023-06-14T03:30:51;100804.06;;;20.22;40.03
36748;BME280;22716;51.556;5.080;2023-06-14T03:33:18;100796.38;;;20.16;40.23
36748;BME280;22716;51.556;5.080;2023-06-14T03:35:45;100806.16;;;20.15;40.32
36748;BME280;22716;51.556;5.080;2023-06-14T03:38:12;100797.56;;;20.10;40.19
36748;BME280;22716;51.556;5.080;2023-06-14T03:40:40;100805.28;;;20.14;40.31
36748;BME280;22716;51.556;5.080;2023-06-14T03:43:06;100804.56;;;20.11;40.74
36748;BME280;22716;51.556;5.080;2023-06-14T03:45:33;100810.53;;;20.16;40.81
36748;BME280;22716;51.556;5.080;2023-06-14T03:48:00;100808.66;;;20.18;40.35
36748;BME280;22716;51.556;5.080;2023-06-14T03:50:28;100816.41;;;20.23;39.90
36748;BME280;22716;51.556;5.080;2023-06-14T03:52:55;100818.38;;;20.19;40.29
36748;BME280;22716;51.556;5.080;2023-06-14T03:55:22;100819.16;;;20.21;40.65
36748;BME280;22716;51.556;5.080;2023-06-14T03:57:52;100815.16;;;20.12;39.95
36748;BME280;22716;51.556;5.080;2023-06-14T04:00:18;100820.47;;;20.12;40.69
36748;BME280;22716;51.556;5.080;2023-06-14T04:02:45;100818.19;;;20.05;40.86
36748;BME280;22716;51.556;5.080;2023-06-14T04:05:12;100820.69;;;20.08;40.96
36748;BME280;22716;51.556;5.080;2023-06-14T04:07:42;100824.00;;;20.13;40.55
36748;BME280;22716;51.556;5.080;2023-06-14T04:10:11;100825.69;;;20.14;40.97
36748;BME280;22716;51.556;5.080;2023-06-14T04:12:38;100824.47;;;20.21;40.61
36748;BME280;22716;51.556;5.080;2023-06-14T04:15:08;100830.41;;;20.09;41.16
36748;BME280;22716;51.556;5.080;2023-06-14T04:17:36;100822.00;;;19.99;41.00
36748;BME280;22716;51.556;5.080;2023-06-14T04:20:05;100823.13;;;19.95;41.60
36748;BME280;22716;51.556;5.080;2023-06-14T04:22:35;100833.22;;;20.06;41.01
36748;BME280;22716;51.556;5.080;2023-06-14T04:25:03;100833.66;;;19.97;41.80
36748;BME280;22716;51.556;5.080;2023-06-14T04:27:32;100828.78;;;19.88;41.68
36748;BME280;22716;51.556;5.080;2023-06-14T04:30:02;100827.00;;;19.88;42.22
36748;BME280;22716;51.556;5.080;2023-06-14T04:32:30;100835.69;;;19.92;42.01
36748;BME280;22716;51.556;5.080;2023-06-14T04:34:59;100835.88;;;20.06;41.76
36748;BME280;22716;51.556;5.080;2023-06-14T04:37:28;100829.94;;;20.01;42.17
36748;BME280;22716;51.556;5.080;2023-06-14T04:39:56;100831.66;;;20.02;41.65
36748;BME280;22716;51.556;5.080;2023-06-14T04:42:23;100819.88;;;19.89;41.93
36748;BME280;22716;51.556;5.080;2023-06-14T04:44:57;100840.72;;;19.98;41.94
36748;BME280;22716;51.556;5.080;2023-06-14T04:47:24;100841.50;;;20.00;42.38
36748;BME280;22716;51.556;5.080;2023-06-14T04:49:57;100838.63;;;20.04;42.13
36748;BME280;22716;51.556;5.080;2023-06-14T04:52:26;100844.56;;;20.09;42.25
36748;BME280;22716;51.556;5.080;2023-06-14T04:54:55;100845.91;;;20.18;42.24
36748;BME280;22716;51.556;5.080;2023-06-14T04:57:22;100846.41;;;20.26;42.11
36748;BME280;22716;51.556;5.080;2023-06-14T04:59:51;100837.09;;;20.52;41.68
36748;BME280;22716;51.556;5.080;2023-06-14T05:02:21;100842.72;;;20.80;40.78
36748;BME280;22716;51.556;5.080;2023-06-14T05:04:49;100846.69;;;20.89;41.21
36748;BME280;22716;51.556;5.080;2023-06-14T05:07:18;100844.19;;;20.86;41.15
36748;BME280;22716;51.556;5.080;2023-06-14T05:09:45;100845.16;;;20.67;41.62
36748;BME280;22716;51.556;5.080;2023-06-14T05:12:12;100850.41;;;20.69;41.40
36748;BME280;22716;51.556;5.080;2023-06-14T05:14:39;100823.41;;;20.42;41.25
36748;BME280;22716;51.556;5.080;2023-06-14T05:17:06;100852.53;;;20.45;42.15
36748;BME280;22716;51.556;5.080;2023-06-14T05:19:33;100860.06;;;20.54;41.53
36748;BME280;22716;51.556;5.080;2023-06-14T05:22:00;100863.78;;;20.67;41.52
36748;BME280;22716;51.556;5.080;2023-06-14T05:24:29;100866.22;;;20.72;41.38
36748;BME280;22716;51.556;5.080;2023-06-14T05:26:57;100856.91;;;20.63;41.70
36748;BME280;22716;51.556;5.080;2023-06-14T05:29:24;100858.16;;;20.56;41.79
36748;BME280;22716;51.556;5.080;2023-06-14T05:31:51;100853.69;;;20.74;41.33
36748;BME280;22716;51.556;5.080;2023-06-14T05:34:18;100852.53;;;20.62;41.83
36748;BME280;22716;51.556;5.080;2023-06-14T05:36:45;100865.53;;;20.68;41.73
36748;BME280;22716;51.556;5.080;2023-06-14T05:39:12;100851.38;;;21.01;41.20
36748;BME280;22716;51.556;5.080;2023-06-14T05:41:41;100857.91;;;20.95;41.33
36748;BME280;22716;51.556;5.080;2023-06-14T05:44:08;100861.09;;;20.85;41.82
36748;BME280;22716;51.556;5.080;2023-06-14T05:46:35;100865.66;;;20.83;41.67
36748;BME280;22716;51.556;5.080;2023-06-14T05:49:02;100834.63;;;20.82;41.49
36748;BME280;22716;51.556;5.080;2023-06-14T05:51:29;100867.75;;;20.93;41.62
36748;BME280;22716;51.556;5.080;2023-06-14T05:53:55;100865.66;;;20.83;42.11
36748;BME280;22716;51.556;5.080;2023-06-14T05:56:22;100868.41;;;20.81;42.05
36748;BME280;22716;51.556;5.080;2023-06-14T05:58:50;100871.72;;;21.02;41.79
36748;BME280;22716;51.556;5.080;2023-06-14T06:01:17;100874.97;;;21.08;41.98
36748;BME280;22716;51.556;5.080;2023-06-14T06:03:44;100861.94;;;21.19;41.80
36748;BME280;22716;51.556;5.080;2023-06-14T06:06:12;100870.84;;;21.36;41.10
36748;BME280;22716;51.556;5.080;2023-06-14T06:08:39;100877.19;;;21.49;41.16
36748;BME280;22716;51.556;5.080;2023-06-14T06:11:06;100879.53;;;21.55;41.32
36748;BME280;22716;51.556;5.080;2023-06-14T06:13:32;100874.44;;;21.35;41.30
36748;BME280;22716;51.556;5.080;2023-06-14T06:16:01;100889.19;;;21.57;41.41
36748;BME280;22716;51.556;5.080;2023-06-14T06:18:28;100889.63;;;21.65;41.20
36748;BME280;22716;51.556;5.080;2023-06-14T06:20:55;100885.13;;;21.50;41.45
36748;BME280;22716;51.556;5.080;2023-06-14T06:23:22;100886.34;;;21.60;41.28
36748;BME280;22716;51.556;5.080;2023-06-14T06:25:49;100891.91;;;21.56;41.73
36748;BME280;22716;51.556;5.080;2023-06-14T06:28:16;100882.78;;;21.44;41.87
36748;BME280;22716;51.556;5.080;2023-06-14T06:30:42;100895.88;;;21.64;41.76
36748;BME280;22716;51.556;5.080;2023-06-14T06:33:11;100899.16;;;21.85;41.05
36748;BME280;22716;51.556;5.080;2023-06-14T06:35:38;100900.16;;;22.00;41.05
36748;BME280;22716;51.556;5.080;2023-06-14T06:38:05;100901.94;;;22.15;40.70
36748;BME280;22716;51.556;5.080;2023-06-14T06:40:31;100910.88;;;22.14;40.56
36748;BME280;22716;51.556;5.080;2023-06-14T06:42:58;100916.75;;;22.20;40.78
36748;BME280;22716;51.556;5.080;2023-06-14T06:45:25;100915.63;;;22.24;40.99
36748;BME280;22716;51.556;5.080;2023-06-14T06:47:52;100914.22;;;22.33;40.52
36748;BME280;22716;51.556;5.080;2023-06-14T06:50:20;100912.09;;;22.24;40.41
36748;BME280;22716;51.556;5.080;2023-06-14T06:52:48;100923.28;;;22.30;40.61
36748;BME280;22716;51.556;5.080;2023-06-14T06:55:15;100923.59;;;22.40;40.47
36748;BME280;22716;51.556;5.080;2023-06-14T06:57:43;100908.53;;;22.39;40.08
36748;BME280;22716;51.556;5.080;2023-06-14T07:00:11;100922.69;;;22.55;40.60
36748;BME280;22716;51.556;5.080;2023-06-14T07:02:38;100916.03;;;22.48;39.85
36748;BME280;22716;51.556;5.080;2023-06-14T07:05:05;100927.09;;;22.56;40.56
36748;BME280;22716;51.556;5.080;2023-06-14T07:07:34;100929.00;;;22.54;40.98
36748;BME280;22716;51.556;5.080;2023-06-14T07:10:01;100932.34;;;22.73;40.17
36748;BME280;22716;51.556;5.080;2023-06-14T07:12:30;100926.31;;;22.70;40.37
36748;BME280;22716;51.556;5.080;2023-06-14T07:14:59;100930.06;;;22.81;40.18
36748;BME280;22716;51.556;5.080;2023-06-14T07:17:26;100935.41;;;22.81;39.69
36748;BME280;22716;51.556;5.080;2023-06-14T07:19:53;100933.16;;;22.90;40.13
36748;BME280;22716;51.556;5.080;2023-06-14T07:22:20;100930.88;;;22.98;39.20
36748;BME280;22716;51.556;5.080;2023-06-14T07:24:48;100940.66;;;23.13;38.71
36748;BME280;22716;51.556;5.080;2023-06-14T07:27:15;100929.34;;;23.08;39.12
36748;BME280;22716;51.556;5.080;2023-06-14T07:29:42;100943.53;;;23.24;38.59
36748;BME280;22716;51.556;5.080;2023-06-14T07:32:09;100944.28;;;23.26;38.48
36748;BME280;22716;51.556;5.080;2023-06-14T07:34:35;100950.97;;;23.33;38.60
36748;BME280;22716;51.556;5.080;2023-06-14T07:37:02;100936.94;;;23.29;37.85
36748;BME280;22716;51.556;5.080;2023-06-14T07:39:29;100952.25;;;23.41;38.03
36748;BME280;22716;51.556;5.080;2023-06-14T07:41:57;100957.69;;;23.40;38.47
36748;BME280;22716;51.556;5.080;2023-06-14T07:44:24;100949.47;;;23.43;37.21
36748;BME280;22716;51.556;5.080;2023-06-14T07:46:51;100954.81;;;23.43;37.62
36748;BME280;22716;51.556;5.080;2023-06-14T07:49:17;100959.72;;;23.51;36.98
36748;BME280;22716;51.556;5.080;2023-06-14T07:51:44;100963.53;;;23.61;36.97
36748;BME280;22716;51.556;5.080;2023-06-14T07:54:12;100946.41;;;23.63;38.00
36748;BME280;22716;51.556;5.080;2023-06-14T07:56:39;100961.13;;;23.70;37.93
36748;BME280;22716;51.556;5.080;2023-06-14T07:59:07;100961.31;;;23.81;37.35
36748;BME280;22716;51.556;5.080;2023-06-14T08:01:34;100969.53;;;23.78;38.02
36748;BME280;22716;51.556;5.080;2023-06-14T08:04:01;100975.66;;;23.94;37.03
36748;BME280;22716;51.556;5.080;2023-06-14T08:06:28;100968.66;;;24.06;36.26
36748;BME280;22716;51.556;5.080;2023-06-14T08:08:56;100981.34;;;24.03;35.94
36748;BME280;22716;51.556;5.080;2023-06-14T08:11:22;100982.97;;;24.05;35.77
36748;BME280;22716;51.556;5.080;2023-06-14T08:13:50;100978.28;;;24.09;35.62
36748;BME280;22716;51.556;5.080;2023-06-14T08:16:18;100979.06;;;24.11;36.15
36748;BME280;22716;51.556;5.080;2023-06-14T08:18:45;100971.44;;;24.19;35.97
36748;BME280;22716;51.556;5.080;2023-06-14T08:21:11;100969.13;;;24.27;35.38
36748;BME280;22716;51.556;5.080;2023-06-14T08:23:40;100957.19;;;24.18;35.80
36748;BME280;22716;51.556;5.080;2023-06-14T08:26:08;100974.28;;;24.30;35.80
36748;BME280;22716;51.556;5.080;2023-06-14T08:28:35;100969.47;;;24.35;35.88
36748;BME280;22716;51.556;5.080;2023-06-14T08:31:02;100975.56;;;24.37;35.68
36748;BME280;22716;51.556;5.080;2023-06-14T08:33:30;100971.34;;;24.47;35.97
36748;BME280;22716;51.556;5.080;2023-06-14T08:35:59;100962.69;;;24.56;35.89
36748;BME280;22716;51.556;5.080;2023-06-14T08:38:26;100959.03;;;24.44;34.98
36748;BME280;22716;51.556;5.080;2023-06-14T08:40:57;100975.94;;;24.45;35.64
36748;BME280;22716;51.556;5.080;2023-06-14T08:43:24;100980.59;;;24.56;35.03
36748;BME280;22716;51.556;5.080;2023-06-14T08:45:55;100978.09;;;24.52;34.96
36748;BME280;22716;51.556;5.080;2023-06-14T08:48:26;100978.22;;;24.51;34.45
36748;BME280;22716;51.556;5.080;2023-06-14T08:50:55;100965.78;;;24.50;34.18
36748;BME280;22716;51.556;5.080;2023-06-14T08:53:28;100968.19;;;24.40;33.43
36748;BME280;22716;51.556;5.080;2023-06-14T08:55:58;100968.91;;;24.30;33.43
36748;BME280;22716;51.556;5.080;2023-06-14T08:58:28;100972.88;;;24.37;33.96
36748;BME280;22716;51.556;5.080;2023-06-14T09:00:57;100970.78;;;24.42;33.50
36748;BME280;22716;51.556;5.080;2023-06-14T09:03:24;100980.91;;;24.51;34.09
36748;BME280;22716;51.556;5.080;2023-06-14T09:05:57;100970.75;;;24.56;34.21
36748;BME280;22716;51.556;5.080;2023-06-14T09:08:25;100977.59;;;24.60;34.53
36748;BME280;22716;51.556;5.080;2023-06-14T09:10:52;100984.19;;;24.69;34.10
36748;BME280;22716;51.556;5.080;2023-06-14T09:13:19;100980.22;;;24.74;34.12
36748;BME280;22716;51.556;5.080;2023-06-14T09:15:46;100971.81;;;24.66;33.60
36748;BME280;22716;51.556;5.080;2023-06-14T09:18:13;100969.56;;;24.60;34.42
36748;BME280;22716;51.556;5.080;2023-06-14T09:20:40;100976.09;;;24.56;34.51
36748;BME280;22716;51.556;5.080;2023-06-14T09:23:08;100972.28;;;24.73;34.00
36748;BME280;22716;51.556;5.080;2023-06-14T09:25:45;100978.97;;;24.80;33.21
36748;BME280;22716;51.556;5.080;2023-06-14T09:28:12;100981.25;;;24.86;33.49
36748;BME280;22716;51.556;5.080;2023-06-14T09:30:39;100988.06;;;24.77;33.05
36748;BME280;22716;51.556;5.080;2023-06-14T09:33:08;100990.91;;;24.88;32.79
36748;BME280;22716;51.556;5.080;2023-06-14T09:35:35;100989.38;;;24.84;32.90
36748;BME280;22716;51.556;5.080;2023-06-14T09:38:02;100992.72;;;24.88;33.04
36748;BME280;22716;51.556;5.080;2023-06-14T09:40:33;100986.63;;;24.98;32.90
36748;BME280;22716;51.556;5.080;2023-06-14T09:43:03;100994.81;;;25.10;32.67
36748;BME280;22716;51.556;5.080;2023-06-14T09:45:30;100984.94;;;24.97;32.45
36748;BME280;22716;51.556;5.080;2023-06-14T09:47:58;100999.19;;;24.98;32.19
36748;BME280;22716;51.556;5.080;2023-06-14T09:50:25;100994.03;;;25.07;32.25
36748;BME280;22716;51.556;5.080;2023-06-14T09:52:52;101002.88;;;25.10;31.32
36748;BME280;22716;51.556;5.080;2023-06-14T09:55:24;100995.88;;;25.07;30.93
36748;BME280;22716;51.556;5.080;2023-06-14T09:57:55;100997.38;;;25.11;30.69
36748;BME280;22716;51.556;5.080;2023-06-14T10:00:24;100990.00;;;25.15;30.21
36748;BME280;22716;51.556;5.080;2023-06-14T10:02:54;100986.91;;;25.21;30.13
36748;BME280;22716;51.556;5.080;2023-06-14T10:05:23;100980.53;;;25.22;30.05
36748;BME280;22716;51.556;5.080;2023-06-14T10:07:55;101003.22;;;25.30;29.90
36748;BME280;22716;51.556;5.080;2023-06-14T10:10:23;100988.50;;;25.23;29.72
36748;BME280;22716;51.556;5.080;2023-06-14T10:12:50;100986.69;;;25.24;29.18
36748;BME280;22716;51.556;5.080;2023-06-14T10:15:24;100987.56;;;25.24;28.86
36748;BME280;22716;51.556;5.080;2023-06-14T10:17:58;100993.88;;;25.23;28.59
36748;BME280;22716;51.556;5.080;2023-06-14T10:20:33;100988.28;;;25.26;28.97
36748;BME280;22716;51.556;5.080;2023-06-14T10:23:08;100989.91;;;25.29;28.16
36748;BME280;22716;51.556;5.080;2023-06-14T10:25:37;100995.25;;;25.29;28.51
36748;BME280;22716;51.556;5.080;2023-06-14T10:28:14;100990.44;;;25.34;28.63
36748;BME280;22716;51.556;5.080;2023-06-14T10:31:05;100998.38;;;25.35;27.94
36748;BME280;22716;51.556;5.080;2023-06-14T10:33:33;101005.34;;;25.38;28.21
36748;BME280;22716;51.556;5.080;2023-06-14T10:36:23;100996.56;;;25.36;27.99
36748;BME280;22716;51.556;5.080;2023-06-14T10:39:00;100990.63;;;25.31;28.09
36748;BME280;22716;51.556;5.080;2023-06-14T10:41:28;100989.47;;;25.35;28.53
36748;BME280;22716;51.556;5.080;2023-06-14T10:44:31;100986.34;;;25.28;28.18
36748;BME280;22716;51.556;5.080;2023-06-14T10:47:00;100991.28;;;25.34;28.30
36748;BME280;22716;51.556;5.080;2023-06-14T10:49:41;100996.00;;;25.31;27.83
36748;BME280;22716;51.556;5.080;2023-06-14T10:52:13;100986.78;;;25.22;27.69
36748;BME280;22716;51.556;5.080;2023-06-14T10:55:10;101001.56;;;25.28;27.65
36748;BME280;22716;51.556;5.080;2023-06-14T10:57:38;100992.59;;;25.29;27.35
36748;BME280;22716;51.556;5.080;2023-06-14T11:00:07;100995.69;;;25.23;27.79
36748;BME280;22716;51.556;5.080;2023-06-14T11:02:52;100992.25;;;25.21;27.74
36748;BME280;22716;51.556;5.080;2023-06-14T11:05:25;101003.53;;;25.26;27.83
36748;BME280;22716;51.556;5.080;2023-06-14T11:08:17;100993.88;;;25.36;28.01
36748;BME280;22716;51.556;5.080;2023-06-14T11:10:46;100980.47;;;25.36;28.13
36748;BME280;22716;51.556;5.080;2023-06-14T11:13:16;100981.75;;;25.43;28.42
36748;BME280;22716;51.556;5.080;2023-06-14T11:15:44;100988.97;;;25.55;28.37
36748;BME280;22716;51.556;5.080;2023-06-14T11:18:13;100981.66;;;25.44;28.61
36748;BME280;22716;51.556;5.080;2023-06-14T11:20:42;100993.69;;;25.39;28.27
36748;BME280;22716;51.556;5.080;2023-06-14T11:23:09;100994.09;;;25.45;28.28
36748;BME280;22716;51.556;5.080;2023-06-14T11:25:35;100985.56;;;25.53;28.10
36748;BME280;22716;51.556;5.080;2023-06-14T11:28:02;100987.81;;;25.59;28.42
36748;BME280;22716;51.556;5.080;2023-06-14T11:30:29;100990.06;;;25.65;27.76
36748;BME280;22716;51.556;5.080;2023-06-14T11:32:56;100984.69;;;25.65;28.09
36748;BME280;22716;51.556;5.080;2023-06-14T11:35:24;100981.34;;;25.61;28.08
36748;BME280;22716;51.556;5.080;2023-06-14T11:37:53;100979.41;;;25.76;28.47
36748;BME280;22716;51.556;5.080;2023-06-14T11:40:23;100979.28;;;25.90;27.83
36748;BME280;22716;51.556;5.080;2023-06-14T11:42:58;100974.97;;;26.00;27.34
36748;BME280;22716;51.556;5.080;2023-06-14T11:45:26;100968.06;;;26.09;27.71
36748;BME280;22716;51.556;5.080;2023-06-14T11:47:55;100967.09;;;26.10;28.07
36748;BME280;22716;51.556;5.080;2023-06-14T11:50:24;100971.72;;;26.21;27.93
36748;BME280;22716;51.556;5.080;2023-06-14T11:52:52;100965.09;;;26.37;27.05
36748;BME280;22716;51.556;5.080;2023-06-14T11:55:20;100966.59;;;26.41;27.01
36748;BME280;22716;51.556;5.080;2023-06-14T11:57:47;100959.41;;;26.42;26.57
36748;BME280;22716;51.556;5.080;2023-06-14T12:00:15;100987.91;;;26.55;27.02
36748;BME280;22716;51.556;5.080;2023-06-14T12:02:43;100976.75;;;26.49;27.12
36748;BME280;22716;51.556;5.080;2023-06-14T12:05:20;100968.19;;;26.44;27.13
36748;BME280;22716;51.556;5.080;2023-06-14T12:07:49;100969.75;;;26.59;26.71
36748;BME280;22716;51.556;5.080;2023-06-14T12:10:16;100970.59;;;26.59;26.81
36748;BME280;22716;51.556;5.080;2023-06-14T12:12:43;100968.38;;;26.53;26.94
36748;BME280;22716;51.556;5.080;2023-06-14T12:15:10;100967.44;;;26.65;27.57
36748;BME280;22716;51.556;5.080;2023-06-14T12:17:38;100976.72;;;26.85;26.99
36748;BME280;22716;51.556;5.080;2023-06-14T12:20:10;100981.25;;;26.85;27.57
36748;BME280;22716;51.556;5.080;2023-06-14T12:22:46;100967.34;;;26.91;27.81
36748;BME280;22716;51.556;5.080;2023-06-14T12:25:27;100968.66;;;26.85;27.28
36748;BME280;22716;51.556;5.080;2023-06-14T12:27:57;100968.91;;;26.82;27.94
36748;BME280;22716;51.556;5.080;2023-06-14T12:30:24;100973.34;;;26.94;28.20
36748;BME280;22716;51.556;5.080;2023-06-14T12:32:51;100969.31;;;27.00;27.58
36748;BME280;22716;51.556;5.080;2023-06-14T12:35:18;100968.25;;;27.13;27.54
36748;BME280;22716;51.556;5.080;2023-06-14T12:37:45;100980.75;;;27.25;27.48
36748;BME280;22716;51.556;5.080;2023-06-14T12:40:13;100984.00;;;27.42;27.84
36748;BME280;22716;51.556;5.080;2023-06-14T12:42:41;100983.25;;;27.51;27.30
36748;BME280;22716;51.556;5.080;2023-06-14T12:45:09;100977.88;;;27.51;27.65
36748;BME280;22716;51.556;5.080;2023-06-14T12:47:36;100979.03;;;27.59;27.02
36748;BME280;22716;51.556;5.080;2023-06-14T12:50:04;100980.84;;;27.70;26.54
36748;BME280;22716;51.556;5.080;2023-06-14T12:52:31;100983.88;;;27.65;25.87
36748;BME280;22716;51.556;5.080;2023-06-14T12:55:02;100969.44;;;27.77;26.19
36748;BME280;22716;51.556;5.080;2023-06-14T12:57:29;100979.38;;;27.99;25.44